Time;durP1;ratioP1;P1;durP2;ratioP2;P2;SDS_P1;SDS_P2;PMS_P1;PMS_P2;Temp;Humidity;BMP_temperature;BMP_pressure;BME280_temperature;BME280_humidity;BME280_pressure;Samples;Min_cycle;Max_cycle;Signal;HPM_P1;HPM_P2
2022/02/13 00:01:43;;;;;;;;;24.00;20.50;;;;;4.05;54.93;101738.81;5073255;28;49920;-72
2022/02/13 00:04:09;;;;;;;;;8.00;5.25;;;;;4.18;55.05;101770.88;5072278;27;49723;-72
2022/02/13 00:06:35;;;;;;;;;21.75;20.75;;;;;5.03;54.44;101878.41;5073157;27;49841;-71
2022/02/13 00:09:00;;;;;;;;;22.00;21.75;;;;;5.01;54.47;101866.97;5073439;27;49788;-72
2022/02/13 00:11:25;;;;;;;;;17.75;17.25;;;;;4.05;54.41;101724.13;5073464;28;49841;-72
2022/02/13 00:13:51;;;;;;;;;22.00;21.00;;;;;5.02;53.88;101853.16;5073457;27;49773;-71
2022/02/13 00:16:17;;;;;;;;;22.75;21.00;;;;;3.82;53.76;101655.16;5072993;28;50439;-72
2022/02/13 00:18:43;;;;;;;;;29.00;25.00;;;;;5.03;53.97;101888.81;5073300;28;49795;-72
2022/02/13 00:21:09;;;;;;;;;21.00;20.50;;;;;5.01;54.25;101854.88;5073208;27;50059;-72
2022/02/13 00:23:35;;;;;;;;;24.00;21.00;;;;;5.03;54.50;101842.88;5073279;27;50041;-72
2022/02/13 00:26:00;;;;;;;;;30.25;26.25;;;;;3.13;54.44;101540.94;5072874;27;50317;-71
2022/02/13 00:28:26;;;;;;;;;28.50;24.50;;;;;3.34;54.92;101570.84;5072906;28;49677;-72
2022/02/13 00:30:52;;;;;;;;;26.50;22.00;;;;;3.55;54.64;101635.28;5072941;27;49707;-71
2022/02/13 00:33:18;;;;;;;;;25.25;23.50;;;;;4.31;54.77;101724.03;5055050;28;49752;-72
2022/02/13 00:35:45;;;;;;;;;27.25;23.75;;;;;3.95;55.27;101660.31;5072803;27;49924;-71
2022/02/13 00:38:10;;;;;;;;;33.75;28.50;;;;;3.87;55.57;101651.19;5073140;28;49866;-72
2022/02/13 00:40:36;;;;;;;;;27.00;25.75;;;;;3.86;55.08;101656.25;5073049;27;49860;-71
2022/02/13 00:43:01;;;;;;;;;30.75;27.25;;;;;3.72;54.38;101593.06;5073119;27;50038;-71
2022/02/13 00:45:27;;;;;;;;;29.00;25.75;;;;;3.82;54.41;101657.78;5072488;28;50786;-72
2022/02/13 00:47:52;;;;;;;;;10.00;3.25;;;;;3.07;54.80;101505.13;5072757;27;49901;-72
2022/02/13 00:50:18;;;;;;;;;22.25;22.25;;;;;4.84;54.46;101820.03;5072455;27;49871;-72
2022/02/13 00:52:43;;;;;;;;;29.75;22.75;;;;;4.78;55.28;101783.25;5072829;27;50690;-72
2022/02/13 00:55:09;;;;;;;;;25.25;25.25;;;;;3.53;54.71;101566.78;5054174;28;51127;-72
2022/02/13 00:57:34;;;;;;;;;20.25;20.25;;;;;2.94;54.83;101471.47;5072594;27;49902;-72
2022/02/13 00:59:59;;;;;;;;;28.25;24.00;;;;;4.85;54.33;101790.63;5072869;27;50184;-72
2022/02/13 01:02:25;;;;;;;;;23.25;21.00;;;;;2.87;55.17;101438.16;5072346;28;49989;-72
2022/02/13 01:04:50;;;;;;;;;24.00;21.50;;;;;4.59;55.23;101747.41;5072109;27;50694;-72
2022/02/13 01:07:16;;;;;;;;;22.50;19.75;;;;;3.56;54.43;101570.47;5072500;28;49685;-72
2022/02/13 01:09:41;;;;;;;;;21.25;19.00;;;;;4.83;54.92;101789.63;5072685;28;49789;-72
2022/02/13 01:12:07;;;;;;;;;17.50;14.00;;;;;3.73;54.90;101616.53;5072751;27;49986;-72
2022/02/13 01:14:33;;;;;;;;;25.25;21.50;;;;;3.89;54.49;101604.50;5072331;28;50724;-72
2022/02/13 01:16:58;;;;;;;;;19.25;19.00;;;;;3.63;54.25;101600.31;5071983;27;50112;-71
2022/02/13 01:19:23;;;;;;;;;19.75;17.00;;;;;2.94;54.68;101470.56;5072165;28;49802;-72
2022/02/13 01:21:49;;;;;;;;;20.25;18.75;;;;;3.31;54.91;101515.25;5072510;28;49979;-71
2022/02/13 01:24:14;;;;;;;;;24.00;20.00;;;;;3.83;54.66;101601.53;5072012;27;50830;-72
2022/02/13 01:26:39;;;;;;;;;18.25;17.00;;;;;4.08;54.39;101637.69;5072391;27;49763;-72
2022/02/13 01:29:05;;;;;;;;;20.00;20.00;;;;;4.00;54.65;101611.25;5072150;28;49790;-72
2022/02/13 01:31:30;;;;;;;;;26.50;21.50;;;;;4.42;54.57;101719.50;5053918;28;49693;-71
2022/02/13 01:33:56;;;;;;;;;22.75;21.00;;;;;4.22;54.55;101696.59;5047041;28;51429;-71
2022/02/13 01:36:21;;;;;;;;;24.00;20.00;;;;;4.51;54.81;101704.44;5071964;27;49992;-71
2022/02/13 01:38:47;;;;;;;;;22.75;21.50;;;;;3.89;55.28;101620.09;5072046;28;49955;-71
2022/02/13 01:41:13;;;;;;;;;22.25;21.00;;;;;4.78;55.50;101754.63;5072185;27;49708;-71
2022/02/13 01:43:38;;;;;;;;;19.75;19.75;;;;;2.88;55.25;101452.91;5071766;28;50155;-70
2022/02/13 01:46:04;;;;;;;;;24.50;24.50;;;;;4.01;55.13;101678.88;5071701;28;49917;-71
2022/02/13 01:48:32;;;;;;;;;17.75;17.75;;;;;3.81;55.76;101634.31;5071982;28;49671;-71
2022/02/13 01:50:58;;;;;;;;;23.50;21.25;;;;;3.82;55.25;101618.81;5072167;27;49809;-71
2022/02/13 01:53:24;;;;;;;;;26.00;21.00;;;;;3.43;55.39;101552.34;5071527;27;50508;-71
2022/02/13 01:55:50;;;;;;;;;25.75;21.75;;;;;3.53;56.42;101600.53;5071571;28;49771;-71
2022/02/13 01:58:16;;;;;;;;;24.25;21.75;;;;;3.72;56.22;101616.44;5071792;28;49909;-71
2022/02/13 02:00:43;;;;;;;;;21.25;21.25;;;;;3.68;56.27;101602.41;5071739;28;49832;-71
2022/02/13 02:03:08;;;;;;;;;19.50;17.00;;;;;2.62;56.32;101438.31;5051923;27;50666;-71
2022/02/13 02:05:34;;;;;;;;;28.50;23.00;;;;;3.76;56.66;101609.72;5071649;27;49838;-71
2022/02/13 02:07:59;;;;;;;;;21.25;21.25;;;;;3.73;56.70;101611.34;5071649;27;49946;-71
2022/02/13 02:10:25;;;;;;;;;19.50;17.25;;;;;2.90;57.59;101464.31;5053389;28;50056;-71
2022/02/13 02:12:50;;;;;;;;;23.25;21.75;;;;;3.19;56.22;101518.00;5071248;28;49720;-71
2022/02/13 02:15:16;;;;;;;;;14.75;13.25;;;;;4.18;57.26;101686.81;5071306;27;49896;-71
2022/02/13 02:17:41;;;;;;;;;20.25;17.75;;;;;3.52;56.93;101594.44;5071187;27;49887;-70
2022/02/13 02:20:07;;;;;;;;;25.50;20.00;;;;;3.64;56.80;101590.00;5071685;28;49875;-71
2022/02/13 02:22:33;;;;;;;;;31.50;27.00;;;;;4.34;56.90;101712.94;5071172;28;49849;-71
2022/02/13 02:24:58;;;;;;;;;26.25;22.50;;;;;2.59;56.26;101426.03;5071291;27;50248;-72
2022/02/13 02:27:24;;;;;;;;;20.75;20.25;;;;;4.15;56.14;101674.56;5071167;28;49690;-72
2022/02/13 02:29:49;;;;;;;;;29.50;27.00;;;;;4.18;55.91;101679.03;5064705;28;49537;-71
2022/02/13 02:32:15;;;;;;;;;20.00;18.50;;;;;3.54;56.60;101589.34;5070677;27;50026;-71
2022/02/13 02:34:41;;;;;;;;;21.75;19.75;;;;;3.47;56.20;101569.00;5070995;27;49737;-71
2022/02/13 02:37:08;;;;;;;;;17.00;17.00;;;;;3.40;56.24;101541.78;5071106;28;49688;-72
2022/02/13 02:39:33;;;;;;;;;18.50;18.25;;;;;3.65;56.78;101622.97;5071390;28;49842;-71
2022/02/13 02:42:00;;;;;;;;;24.50;23.75;;;;;3.33;56.49;101524.91;5070912;27;50368;-71
2022/02/13 02:44:28;;;;;;;;;26.75;24.00;;;;;4.29;56.20;101683.16;5070890;28;49791;-71
2022/02/13 02:46:54;;;;;;;;;28.50;23.25;;;;;4.29;56.31;101698.78;5070658;27;49744;-71
2022/02/13 02:49:19;;;;;;;;;25.25;25.00;;;;;2.33;57.17;101358.75;5071021;28;49803;-72
2022/02/13 02:51:45;;;;;;;;;25.00;24.00;;;;;2.25;57.11;101363.44;5070731;28;50616;-71
2022/02/13 02:54:10;;;;;;;;;24.00;24.00;;;;;2.23;56.66;101346.00;5070868;27;49743;-71
2022/02/13 02:56:36;;;;;;;;;27.75;26.00;;;;;2.68;56.41;101424.84;5070876;27;49842;-71
2022/02/13 02:59:01;;;;;;;;;26.25;19.50;;;;;2.56;56.79;101422.38;5071057;28;49893;-71
2022/02/13 03:01:26;;;;;;;;;22.75;20.25;;;;;4.21;56.85;101669.72;5070247;27;49785;-71
2022/02/13 03:03:52;;;;;;;;;23.25;20.00;;;;;2.37;57.04;101376.25;5070786;28;49749;-71
2022/02/13 03:06:17;;;;;;;;;29.25;26.75;;;;;4.16;56.57;101655.56;5070509;27;49772;-72
2022/02/13 03:08:43;;;;;;;;;31.00;25.00;;;;;4.18;56.91;101659.13;5070881;28;49860;-71
2022/02/13 03:11:09;;;;;;;;;28.50;26.25;;;;;3.87;57.13;101596.63;5070534;27;49720;-71
2022/02/13 03:13:35;;;;;;;;;29.50;27.50;;;;;2.28;57.34;101371.38;5070182;28;49840;-72
2022/02/13 03:16:00;;;;;;;;;31.50;25.75;;;;;3.43;57.63;101565.31;5052117;28;49893;-71
2022/02/13 03:18:26;;;;;;;;;29.75;26.00;;;;;2.10;57.71;101317.53;5070581;28;49771;-71
2022/02/13 03:20:51;;;;;;;;;32.75;28.50;;;;;2.06;57.62;101326.81;5070304;28;49598;-71
2022/02/13 03:23:18;;;;;;;;;34.00;32.50;;;;;2.90;57.07;101463.41;5070400;28;49837;-71
2022/02/13 03:25:44;;;;;;;;;21.00;21.00;;;;;3.72;57.19;101619.03;5063853;28;49766;-71
2022/02/13 03:28:10;;;;;;;;;25.25;25.25;;;;;3.54;58.30;101560.78;5070351;28;49671;-71
2022/02/13 03:30:36;;;;;;;;;34.75;33.75;;;;;3.72;57.81;101585.28;5069785;27;49681;-71
2022/02/13 03:33:02;;;;;;;;;26.75;24.75;;;;;3.32;57.80;101553.38;5070254;28;49774;-71
2022/02/13 03:35:28;;;;;;;;;28.75;25.00;;;;;3.06;58.14;101507.63;5070450;28;49825;-71
2022/02/13 03:37:54;;;;;;;;;28.00;23.75;;;;;2.53;58.33;101406.66;5070523;28;50090;-71
2022/02/13 03:40:20;;;;;;;;;25.25;22.75;;;;;2.02;59.10;101319.63;5051425;28;52302;-71
2022/02/13 03:42:45;;;;;;;;;24.50;23.50;;;;;2.74;58.17;101461.53;5070084;28;49885;-71
2022/02/13 03:45:12;;;;;;;;;30.25;24.00;;;;;2.33;58.67;101365.63;5069868;27;49758;-71
2022/02/13 03:47:39;;;;;;;;;25.25;22.00;;;;;2.57;57.87;101427.66;5070278;28;49827;-71
2022/02/13 03:50:05;;;;;;;;;29.00;26.00;;;;;3.15;58.52;101516.00;5069956;28;50496;-70
2022/02/13 03:52:30;;;;;;;;;29.50;22.75;;;;;2.94;58.86;101445.53;5070158;27;49677;-70
2022/02/13 03:54:56;;;;;;;;;33.00;28.25;;;;;2.71;58.46;101444.09;5070261;28;50281;-70
2022/02/13 03:57:21;;;;;;;;;35.25;28.25;;;;;3.36;58.38;101517.31;5070122;28;49916;-70
2022/02/13 03:59:47;;;;;;;;;35.00;26.50;;;;;3.61;58.79;101563.88;5069718;27;50887;-70
2022/02/13 04:02:12;;;;;;;;;27.25;24.25;;;;;3.82;58.74;101612.72;5069637;27;49755;-70
2022/02/13 04:04:37;;;;;;;;;24.00;20.50;;;;;2.94;58.48;101462.78;5069979;28;49716;-70
2022/02/13 04:07:03;;;;;;;;;27.75;23.25;;;;;3.10;58.57;101486.28;5070231;28;49952;-70
2022/02/13 04:09:28;;;;;;;;;27.00;24.25;;;;;3.80;58.73;101602.25;5051506;28;52306;-70
2022/02/13 04:11:54;;;;;;;;;22.75;21.00;;;;;3.17;58.89;101516.97;5070111;28;49919;-70
2022/02/13 04:14:19;;;;;;;;;27.00;25.75;;;;;1.53;58.49;101212.94;5069790;27;50144;-71
2022/02/13 04:16:44;;;;;;;;;24.00;23.00;;;;;3.49;59.36;101565.72;5069623;27;49684;-71
2022/02/13 04:19:10;;;;;;;;;25.25;23.00;;;;;2.03;58.78;101282.59;5069773;28;50000;-72
2022/02/13 04:21:35;;;;;;;;;21.50;21.50;;;;;2.12;58.84;101322.00;5069576;27;49733;-71
2022/02/13 04:24:00;;;;;;;;;24.00;22.50;;;;;3.51;59.48;101566.69;5069732;28;50022;-71
2022/02/13 04:26:26;;;;;;;;;31.00;27.50;;;;;3.25;59.65;101484.63;5071524;28;49858;-71
2022/02/13 04:28:51;;;;;;;;;29.00;25.75;;;;;3.06;58.46;101463.53;5072856;27;50691;-71
2022/02/13 04:31:17;;;;;;;;;25.00;19.00;;;;;3.06;59.21;101448.88;5072930;27;49832;-71
2022/02/13 04:33:42;;;;;;;;;25.00;25.00;;;;;3.28;59.11;101500.41;5073311;27;49692;-71
2022/02/13 04:36:08;;;;;;;;;25.75;24.00;;;;;1.88;58.98;101271.25;5073205;27;49515;-71
2022/02/13 04:38:34;;;;;;;;;26.75;25.00;;;;;2.72;58.79;101407.00;5054607;28;51692;-71
2022/02/13 04:41:00;;;;;;;;;24.00;24.00;;;;;2.01;58.83;101268.63;5072970;27;49874;-71
2022/02/13 04:43:26;;;;;;;;;24.75;23.75;;;;;3.26;58.96;101527.94;5073030;27;49763;-70
2022/02/13 04:45:51;;;;;;;;;24.25;21.50;;;;;2.01;59.51;101266.94;5072949;27;49882;-71
2022/02/13 04:48:16;;;;;;;;;25.25;25.25;;;;;3.35;59.69;101512.03;5054416;28;50890;-70
2022/02/13 04:50:42;;;;;;;;;25.25;25.25;;;;;3.23;59.04;101507.00;5072812;28;49883;-70
2022/02/13 04:53:07;;;;;;;;;25.75;23.25;;;;;2.05;59.11;101268.03;5072976;28;49800;-70
2022/02/13 04:55:33;;;;;;;;;21.50;20.50;;;;;3.72;59.46;101546.34;5072852;27;49719;-70
2022/02/13 04:57:58;;;;;;;;;23.25;22.25;;;;;2.79;59.03;101395.28;5072350;27;50444;-70
2022/02/13 05:00:23;;;;;;;;;23.75;22.50;;;;;2.09;59.03;101292.44;5072429;28;49865;-70
2022/02/13 05:02:49;;;;;;;;;26.25;23.50;;;;;3.69;59.65;101522.78;5072746;27;49874;-70
2022/02/13 05:05:14;;;;;;;;;24.00;23.25;;;;;2.55;59.40;101338.53;5072733;27;49952;-70
2022/02/13 05:07:40;;;;;;;;;26.50;22.25;;;;;2.93;59.41;101383.19;5072358;28;49880;-70
2022/02/13 05:10:06;;;;;;;;;27.25;23.25;;;;;3.46;59.92;101472.06;5072625;28;49900;-71
2022/02/13 05:12:32;;;;;;;;;23.00;20.75;;;;;2.47;59.60;101313.84;5072299;28;49766;-70
2022/02/13 05:14:57;;;;;;;;;24.75;21.00;;;;;1.88;59.33;101232.41;5054121;28;50063;-71
2022/02/13 05:17:23;;;;;;;;;23.50;20.50;;;;;2.65;59.51;101337.41;5072110;27;50818;-70
2022/02/13 05:19:49;;;;;;;;;21.50;20.75;;;;;2.59;59.63;101365.53;5072393;27;49800;-72
2022/02/13 05:22:15;;;;;;;;;24.25;22.75;;;;;2.44;59.65;101330.91;5072417;28;49880;-72
2022/02/13 05:24:41;;;;;;;;;29.00;25.25;;;;;1.88;59.75;101191.88;5072588;28;49925;-71
2022/02/13 05:27:06;;;;;;;;;21.75;21.00;;;;;3.46;59.06;101453.88;5076103;27;51122;-71
2022/02/13 05:29:33;;;;;;;;;28.00;23.50;;;;;3.46;59.94;101453.88;5073903;27;49976;-71
2022/02/13 05:31:59;;;;;;;;;23.75;22.25;;;;;3.66;59.40;101509.59;5071794;27;50059;-71
2022/02/13 05:34:25;;;;;;;;;23.50;20.25;;;;;3.67;59.51;101475.06;5074702;27;49767;-73
2022/02/13 05:36:50;;;;;;;;;22.00;22.00;;;;;1.90;59.98;101185.09;5074459;27;50254;-72
2022/02/13 05:39:16;;;;;;;;;25.25;22.00;;;;;3.33;59.89;101417.63;5078761;27;49598;-72
2022/02/13 05:41:42;;;;;;;;;24.25;18.75;;;;;2.08;59.68;101212.94;5071967;27;50073;-72
2022/02/13 05:44:08;;;;;;;;;28.00;28.00;;;;;3.05;60.06;101417.66;5072179;28;49597;-72
2022/02/13 05:46:33;;;;;;;;;25.00;21.75;;;;;2.67;59.81;101311.59;5071449;27;49688;-72
2022/02/13 05:48:59;;;;;;;;;28.00;26.50;;;;;2.54;60.30;101318.63;5077838;27;49903;-71
2022/02/13 05:51:26;;;;;;;;;22.00;20.25;;;;;2.07;60.18;101214.63;5071935;28;49955;-71
2022/02/13 05:53:55;;;;;;;;;24.75;23.00;;;;;2.66;59.83;101326.25;5073016;27;49898;-72
2022/02/13 05:56:22;;;;;;;;;19.00;16.50;;;;;3.63;59.77;101467.88;5071405;27;50822;-72
2022/02/13 05:58:48;;;;;;;;;27.00;22.00;;;;;1.85;59.53;101164.94;5075040;27;49903;-71
2022/02/13 06:01:14;;;;;;;;;24.75;22.50;;;;;3.23;59.91;101421.38;5075762;27;49994;-72
2022/02/13 06:03:39;;;;;;;;;19.75;19.50;;;;;2.51;60.00;101294.19;5071864;27;49995;-71
2022/02/13 06:06:05;;;;;;;;;25.00;20.75;;;;;3.38;59.38;101424.91;5071411;28;50901;-71
2022/02/13 06:08:31;;;;;;;;;32.25;24.50;;;;;3.42;60.16;101445.03;5071484;27;49774;-71
2022/02/13 06:10:56;;;;;;;;;33.25;19.50;;;;;2.10;60.14;101207.03;5073288;27;49741;-71
2022/02/13 06:13:22;;;;;;;;;21.25;21.25;;;;;3.42;59.82;101429.47;5071892;27;49775;-71
2022/02/13 06:15:47;;;;;;;;;30.25;24.25;;;;;2.00;59.32;101192.63;5071224;27;49936;-72
2022/02/13 06:18:13;;;;;;;;;22.25;20.00;;;;;3.69;59.62;101456.16;5055608;28;49824;-72
2022/02/13 06:20:40;;;;;;;;;30.00;23.25;;;;;1.78;59.77;101134.28;5071565;28;49975;-73
2022/02/13 06:23:09;;;;;;;;;23.50;16.50;;;;;1.99;58.88;101183.09;5077413;27;49846;-72
2022/02/13 06:25:36;;;;;;;;;33.25;19.50;;;;;3.65;59.13;101451.59;5070881;27;49662;-72
2022/02/13 06:28:01;;;;;;;;;24.50;21.50;;;;;1.90;59.24;101184.22;5076980;27;50018;-72
2022/02/13 06:30:27;;;;;;;;;26.00;20.50;;;;;3.38;59.01;101457.75;5071018;28;50487;-71
2022/02/13 06:32:52;;;;;;;;;18.00;16.00;;;;;2.24;59.16;101231.22;5071435;28;49842;-72
2022/02/13 06:35:18;;;;;;;;;21.50;20.00;;;;;2.36;59.40;101280.31;5070957;28;49897;-71
2022/02/13 06:37:44;;;;;;;;;25.75;22.00;;;;;2.28;58.43;101225.41;5070939;27;49884;-71
2022/02/13 06:40:10;;;;;;;;;29.75;24.00;;;;;3.58;59.65;101467.63;5072348;27;49795;-69
2022/02/13 06:42:37;;;;;;;;;22.50;20.75;;;;;3.57;59.69;101452.84;5073090;27;49790;-72
2022/02/13 06:45:03;;;;;;;;;21.75;18.00;;;;;1.94;59.04;101189.69;5073897;27;49832;-73
2022/02/13 06:47:28;;;;;;;;;25.75;23.00;;;;;1.71;58.67;101140.75;5072369;27;49890;-73
2022/02/13 06:49:53;;;;;;;;;20.50;19.00;;;;;1.73;58.52;101133.97;5056006;28;49760;-70
2022/02/13 06:52:19;;;;;;;;;21.25;21.00;;;;;3.26;59.32;101407.66;5073930;27;49530;-70
2022/02/13 06:54:44;;;;;;;;;16.75;15.00;;;;;2.55;58.63;101299.66;5075376;27;49994;-70
2022/02/13 06:57:09;;;;;;;;;20.50;18.75;;;;;2.50;59.34;101287.22;5070671;28;49923;-70
2022/02/13 06:59:35;;;;;;;;;23.25;18.50;;;;;1.55;58.60;101104.41;5077472;27;49742;-70
2022/02/13 07:02:00;;;;;;;;;22.75;22.25;;;;;3.44;58.68;101450.31;5073309;27;49980;-70
2022/02/13 07:04:25;;;;;;;;;29.00;24.50;;;;;1.36;58.87;101054.09;5071348;27;50424;-70
2022/02/13 07:06:51;;;;;;;;;25.75;22.25;;;;;2.67;58.65;101317.66;5070396;28;49685;-71
2022/02/13 07:09:16;;;;;;;;;26.75;22.75;;;;;1.85;58.60;101147.69;5068093;27;49815;-70
2022/02/13 07:11:44;;;;;;;;;23.00;22.75;;;;;2.33;59.51;101254.22;5070639;27;49818;-72
2022/02/13 07:14:09;;;;;;;;;31.75;23.25;;;;;2.53;59.64;101239.06;5070029;27;49855;-71
2022/02/13 07:16:34;;;;;;;;;21.50;19.00;;;;;2.29;59.38;101237.56;5074451;27;49849;-71
2022/02/13 07:19:00;;;;;;;;;24.50;21.00;;;;;1.52;58.65;101074.03;5070642;27;49702;-72
2022/02/13 07:21:25;;;;;;;;;24.25;24.25;;;;;3.45;59.64;101398.47;5070563;27;49903;-73
2022/02/13 07:23:50;;;;;;;;;19.25;17.00;;;;;2.43;59.34;101235.84;5069898;27;50852;-73
2022/02/13 07:26:16;;;;;;;;;29.75;22.75;;;;;3.24;59.10;101397.22;5073577;27;49884;-72
2022/02/13 07:28:59;;;;;;;;;27.50;24.50;;;;;1.60;58.85;101084.84;5072576;27;49739;-73
2022/02/13 07:31:28;;;;;;;;;23.25;22.00;;;;;2.46;59.03;101243.78;5076479;27;49771;-72
2022/02/13 07:33:54;;;;;;;;;20.00;19.00;;;;;2.78;58.53;101315.72;5070055;27;49810;-73
2022/02/13 07:36:19;;;;;;;;;14.75;14.75;;;;;1.90;59.14;101151.44;5069700;27;49906;-73
2022/02/13 07:38:45;;;;;;;;;25.25;22.25;;;;;3.39;57.93;101377.38;5070031;27;49951;-73
2022/02/13 07:41:10;;;;;;;;;24.75;23.25;;;;;2.50;57.81;101244.06;5076675;27;49847;-72
2022/02/13 07:43:36;;;;;;;;;19.50;19.00;;;;;1.96;57.89;101135.41;5070533;27;50625;-73
2022/02/13 07:46:01;;;;;;;;;19.00;17.25;;;;;3.53;58.07;101383.38;5069793;27;49932;-73
2022/02/13 07:48:27;;;;;;;;;22.50;21.75;;;;;2.29;57.56;101149.50;5070295;27;50570;-73
2022/02/13 07:50:52;;;;;;;;;24.00;23.25;;;;;1.58;56.71;101043.38;5075936;27;50026;-73
2022/02/13 07:53:17;;;;;;;;;26.25;22.50;;;;;2.23;57.24;101177.63;5069705;27;50431;-72
2022/02/13 07:55:43;;;;;;;;;22.50;20.25;;;;;2.87;57.33;101251.44;5070053;27;49882;-83
2022/02/13 07:58:09;;;;;;;;;24.50;19.75;;;;;2.27;57.19;101151.09;5075759;27;49827;-70
2022/02/13 08:00:35;;;;;;;;;19.75;18.00;;;;;2.87;56.77;101218.63;5070173;27;49704;-66
2022/02/13 08:03:00;;;;;;;;;22.25;22.25;;;;;2.19;56.84;101127.31;5077170;27;49939;-69
2022/02/13 08:05:25;;;;;;;;;18.00;15.25;;;;;2.62;56.49;101186.91;5073725;27;49817;-69
2022/02/13 08:07:51;;;;;;;;;25.25;20.25;;;;;1.77;56.04;101032.44;5079589;27;49706;-67
2022/02/13 08:10:17;;;;;;;;;18.00;18.00;;;;;3.89;57.54;101348.25;5079249;27;49965;-65
2022/02/13 08:12:44;;;;;;;;;19.50;17.25;;;;;3.89;56.03;101327.47;5074204;27;50496;-70
2022/02/13 08:15:10;;;;;;;;;28.75;17.00;;;;;3.65;56.71;101279.31;5072742;27;49747;-69
2022/02/13 08:17:35;;;;;;;;;20.00;20.00;;;;;3.81;57.26;101304.47;5077666;27;49841;-69
2022/02/13 08:20:05;;;;;;;;;16.00;16.00;;;;;3.71;56.67;101253.72;5074224;27;49993;-67
2022/02/13 08:22:32;;;;;;;;;23.25;21.25;;;;;3.59;56.70;101232.28;5077427;27;49921;-67
2022/02/13 08:24:58;;;;;;;;;29.00;22.50;;;;;4.15;56.50;101310.75;5054860;28;49823;-68
2022/02/13 08:27:23;;;;;;;;;22.25;20.75;;;;;4.00;57.33;101315.97;5073042;27;49864;-68
2022/02/13 08:29:51;;;;;;;;;19.00;18.50;;;;;3.32;56.62;101136.47;5077068;27;49891;-68
2022/02/13 08:32:17;;;;;;;;;27.25;19.25;;;;;4.35;57.40;101323.94;5074057;27;50081;-67
2022/02/13 08:34:42;;;;;;;;;18.00;17.00;;;;;3.51;57.27;101181.63;5072600;27;49838;-67
2022/02/13 08:37:08;;;;;;;;;25.50;23.50;;;;;4.35;57.11;101283.25;5077593;27;49775;-67
2022/02/13 08:39:33;;;;;;;;;23.25;20.00;;;;;3.40;57.78;101121.34;5076264;27;49778;-67
2022/02/13 08:41:59;;;;;;;;;17.50;17.25;;;;;3.22;57.52;101090.06;5077822;27;50751;-69
2022/02/13 08:44:24;;;;;;;;;23.25;23.25;;;;;2.89;57.81;100990.53;5074150;27;49981;-68
2022/02/13 08:46:50;;;;;;;;;24.00;20.75;;;;;4.48;58.53;101251.88;5086244;27;50014;-68
2022/02/13 08:49:15;;;;;;;;;19.50;18.25;;;;;3.78;57.80;101102.63;5073798;27;49908;-68
2022/02/13 08:51:40;;;;;;;;;27.50;23.00;;;;;4.68;58.33;101252.91;5079129;27;50064;-67
2022/02/13 08:54:06;;;;;;;;;21.75;20.00;;;;;3.86;57.91;101118.59;5056565;28;49894;-67
2022/02/13 08:56:31;;;;;;;;;20.25;18.25;;;;;4.73;57.41;101250.53;5072850;27;49900;-67
2022/02/13 08:58:57;;;;;;;;;30.50;24.25;;;;;4.42;58.38;101207.34;5076041;27;50308;-68
2022/02/13 09:01:23;;;;;;;;;20.50;20.50;;;;;3.38;58.33;101025.22;5076880;27;50426;-66
2022/02/13 09:03:48;;;;;;;;;30.75;21.00;;;;;4.55;58.14;101176.00;5076488;27;49597;-64
2022/02/13 09:06:14;;;;;;;;;20.50;17.75;;;;;5.16;58.91;101277.97;5071239;27;49844;-64
2022/02/13 09:08:39;;;;;;;;;25.00;21.75;;;;;4.43;58.60;101179.66;5071904;27;49704;-68
2022/02/13 09:11:05;;;;;;;;;36.75;34.25;;;;;3.29;58.55;100962.47;5071906;27;50395;-72
2022/02/13 09:13:31;;;;;;;;;20.25;18.00;;;;;5.02;58.44;101254.63;5071859;28;49679;-67
2022/02/13 09:15:56;;;;;;;;;24.75;22.75;;;;;4.20;58.33;101104.00;5071951;27;49779;-74
2022/02/13 09:18:21;;;;;;;;;25.50;21.75;;;;;3.80;58.73;101010.13;5071352;28;50247;-66
2022/02/13 09:20:47;;;;;;;;;31.25;26.25;;;;;5.27;59.29;101223.84;5072238;28;49774;-65
2022/02/13 09:23:14;;;;;;;;;25.00;22.75;;;;;5.61;58.20;101252.44;5072329;28;49900;-62
2022/02/13 09:25:41;;;;;;;;;24.00;22.00;;;;;5.71;58.22;101245.94;5054106;28;49844;-68
2022/02/13 09:28:06;;;;;;;;;25.50;22.50;;;;;5.78;58.55;101224.56;5072747;27;49803;-65
2022/02/13 09:30:32;;;;;;;;;21.25;20.50;;;;;5.78;58.68;101195.00;5077475;27;51045;-75
2022/02/13 09:32:57;;;;;;;;;27.25;24.00;;;;;5.73;58.17;101180.06;5071952;27;49576;-72
2022/02/13 09:35:23;;;;;;;;;23.25;18.50;;;;;5.52;58.73;101108.75;5072242;28;49969;-65
2022/02/13 09:37:50;;;;;;;;;25.75;24.75;;;;;6.17;58.75;101188.16;5072519;28;49937;-65
2022/02/13 09:40:16;;;;;;;;;25.50;23.00;;;;;5.97;58.34;101133.41;5071892;27;50515;-71
2022/02/13 09:42:44;;;;;;;;;30.00;27.25;;;;;6.00;58.62;101106.63;5072069;27;49833;-69
2022/02/13 09:45:10;;;;;;;;;25.25;21.00;;;;;6.32;58.17;101129.78;5071700;27;49849;-73
2022/02/13 09:47:37;;;;;;;;;24.00;24.00;;;;;6.54;58.20;101136.81;5074507;28;50002;-70
2022/02/13 09:50:03;;;;;;;;;23.75;22.25;;;;;4.75;58.37;100797.28;5071753;28;50990;-70
2022/02/13 09:52:30;;;;;;;;;22.00;22.00;;;;;6.03;58.02;100995.59;5071842;28;49657;-68
2022/02/13 09:54:55;;;;;;;;;24.75;21.50;;;;;6.58;57.85;101073.53;5053602;28;50327;-67
2022/02/13 10:00:06;;;;;;;;;24.00;18.25;;;;;5.46;57.99;100871.50;5071521;27;50063;-68
2022/02/13 10:02:36;;;;;;;;;26.75;22.25;;;;;6.85;58.11;101075.47;5070343;27;49759;-68
2022/02/13 10:05:04;;;;;;;;;23.00;20.00;;;;;7.15;58.11;101110.66;5071760;28;49912;-71
2022/02/13 10:07:34;;;;;;;;;22.25;22.00;;;;;7.24;58.02;101106.63;5071611;27;49861;-70
2022/02/13 10:10:02;;;;;;;;;32.50;24.75;;;;;6.73;58.43;101048.88;5071297;28;49913;-70
2022/02/13 10:12:40;;;;;;;;;27.50;26.75;;;;;7.29;58.17;101102.47;5071683;27;49759;-70
2022/02/13 10:15:20;;;;;;;;;32.25;23.25;;;;;7.29;57.95;101061.59;5065418;27;49847;-71
2022/02/13 10:18:05;;;;;;;;;33.25;23.00;;;;;7.66;57.58;101090.00;5053164;28;49831;-71
2022/02/13 10:20:33;;;;;;;;;25.75;24.00;;;;;7.77;58.16;101082.56;5071045;27;50503;-70
2022/02/13 10:23:07;;;;;;;;;24.00;21.50;;;;;7.53;58.07;101018.94;5052637;28;50005;-81
2022/02/13 10:25:33;;;;;;;;;27.00;23.50;;;;;7.89;57.95;101071.66;5070946;28;49883;-64
2022/02/13 10:27:58;;;;;;;;;25.25;24.00;;;;;8.00;57.87;101068.59;5071435;27;49821;-68
2022/02/13 10:30:37;;;;;;;;;27.25;25.00;;;;;8.13;57.17;101069.94;5071677;28;50358;-64
2022/02/13 10:33:22;;;;;;;;;30.00;25.00;;;;;8.28;57.63;101064.34;5071058;27;49795;-66
2022/02/13 10:36:06;;;;;;;;;25.25;24.25;;;;;8.33;58.02;101055.84;5071346;28;49683;-66
2022/02/13 10:38:33;;;;;;;;;30.75;26.50;;;;;8.14;57.06;101016.81;5071190;28;49909;-65
2022/02/13 10:41:22;;;;;;;;;25.50;23.50;;;;;8.41;57.62;101061.38;5070645;28;51707;-68
2022/02/13 10:43:50;;;;;;;;;27.00;24.00;;;;;8.42;57.20;101047.44;5063184;28;49919;-66
2022/02/13 10:46:17;;;;;;;;;29.25;26.50;;;;;8.03;57.30;100984.16;5070972;28;49720;-69
2022/02/13 10:48:45;;;;;;;;;20.75;20.75;;;;;8.22;57.50;100993.53;5071281;27;49784;-68
2022/02/13 10:51:12;;;;;;;;;28.75;28.75;;;;;8.36;58.02;100999.25;5052313;28;51426;-70
2022/02/13 10:53:39;;;;;;;;;34.75;31.75;;;;;8.30;57.16;100989.47;5052675;27;49848;-69
2022/02/13 10:56:05;;;;;;;;;25.50;22.00;;;;;8.62;57.74;101034.13;5069366;28;49634;-70
2022/02/13 10:58:31;;;;;;;;;31.75;24.50;;;;;7.77;58.19;100859.53;5052655;28;49706;-69
2022/02/13 11:00:58;;;;;;;;;28.25;26.75;;;;;7.78;57.48;100843.91;5051699;28;51315;-69
2022/02/13 11:03:25;;;;;;;;;23.75;23.50;;;;;7.90;57.67;100880.88;5052173;28;49773;-69
2022/02/13 11:05:51;;;;;;;;;23.50;22.00;;;;;7.73;57.53;100842.88;5052212;28;49968;-70
2022/02/13 11:08:18;;;;;;;;;20.75;19.75;;;;;8.00;57.96;100876.84;5070559;27;50000;-69
2022/02/13 11:10:50;;;;;;;;;27.50;24.75;;;;;8.79;58.11;100964.91;5070452;27;50659;-69
2022/02/13 11:13:17;;;;;;;;;26.75;26.50;;;;;8.92;58.37;100988.00;5070551;28;49778;-65
2022/02/13 11:15:44;;;;;;;;;26.00;23.00;;;;;8.96;58.02;100939.22;5070654;28;49838;-65